createdAt,value
2019-06-07T00:00:56.938Z,992.78
2019-06-07T00:01:56.923Z,992.75
2019-06-07T00:02:56.900Z,992.78
2019-06-07T00:03:56.883Z,992.74
2019-06-07T00:04:56.872Z,992.71
2019-06-07T00:05:56.852Z,992.71
2019-06-07T00:06:56.840Z,992.72
2019-06-07T00:08:07.032Z,992.73
2019-06-07T00:08:56.809Z,992.70
2019-06-07T00:09:56.798Z,992.68
2019-06-07T00:10:56.775Z,992.70
2019-06-07T00:11:56.777Z,992.62
2019-06-07T00:12:56.739Z,992.64
2019-06-07T00:13:56.726Z,992.63
2019-06-07T00:14:56.707Z,992.62
2019-06-07T00:15:56.691Z,992.61
2019-06-07T00:16:56.674Z,992.59
2019-06-07T00:17:56.659Z,992.65
2019-06-07T00:18:56.653Z,992.62
2019-06-07T00:19:56.620Z,992.58
2019-06-07T00:20:56.795Z,992.60
2019-06-07T00:22:56.619Z,992.57
2019-06-07T00:23:56.562Z,992.54
2019-06-07T00:24:56.539Z,992.55
2019-06-07T00:25:56.527Z,992.53
2019-06-07T00:26:58.723Z,992.54
2019-06-07T00:27:56.491Z,992.55
2019-06-07T00:28:56.474Z,992.53
2019-06-07T00:29:56.466Z,992.53
2019-06-07T00:30:56.462Z,992.54
2019-06-07T00:31:56.437Z,992.55
2019-06-07T00:32:56.431Z,992.49
2019-06-07T00:33:56.406Z,992.50
2019-06-07T00:34:56.381Z,992.47
2019-06-07T00:35:56.373Z,992.48
2019-06-07T00:36:56.339Z,992.45
2019-06-07T00:37:56.323Z,992.47
2019-06-07T00:38:56.331Z,992.48
2019-06-07T00:40:13.396Z,992.43
2019-06-07T00:40:56.283Z,992.47
2019-06-07T00:41:56.255Z,992.46
2019-06-07T00:42:56.267Z,992.45
2019-06-07T00:43:56.233Z,992.50
2019-06-07T00:44:56.208Z,992.48
2019-06-07T00:45:56.187Z,992.47
2019-06-07T00:46:56.177Z,992.41
2019-06-07T00:47:56.158Z,992.43
2019-06-07T00:48:56.175Z,992.38
2019-06-07T00:49:56.125Z,992.41
2019-06-07T00:50:56.103Z,992.38
2019-06-07T00:51:56.092Z,992.38
2019-06-07T00:53:14.721Z,992.36
2019-06-07T00:53:56.062Z,992.33
2019-06-07T00:54:56.102Z,992.34
2019-06-07T00:55:56.028Z,992.38
2019-06-07T00:56:56.003Z,992.36
2019-06-07T00:57:55.984Z,992.38
2019-06-07T00:59:10.739Z,992.37
2019-06-07T00:59:55.958Z,992.32
2019-06-07T01:00:55.936Z,992.32
2019-06-07T01:01:55.925Z,992.32
2019-06-07T01:02:55.908Z,992.38
2019-06-07T01:03:55.892Z,992.37
2019-06-07T01:04:55.873Z,992.39
2019-06-07T01:05:55.854Z,992.40
2019-06-07T01:06:55.842Z,992.35
2019-06-07T01:07:55.836Z,992.35
2019-06-07T01:08:55.805Z,992.34
2019-06-07T01:09:55.792Z,992.36
2019-06-07T01:10:55.773Z,992.34
2019-06-07T01:11:55.759Z,992.33
2019-06-07T01:12:55.739Z,992.30
2019-06-07T01:13:55.621Z,992.31
2019-06-07T01:14:55.715Z,992.30
2019-06-07T01:15:55.686Z,992.33
2019-06-07T01:17:05.271Z,992.35
2019-06-07T01:18:55.635Z,992.38
2019-06-07T01:19:55.616Z,992.35
2019-06-07T01:20:55.597Z,992.37
2019-06-07T01:21:55.580Z,992.32
2019-06-07T01:22:55.578Z,992.33
2019-06-07T01:24:10.700Z,992.36
2019-06-07T01:24:55.536Z,992.32
2019-06-07T01:25:55.531Z,992.32
2019-06-07T01:26:55.516Z,992.28
2019-06-07T01:27:55.493Z,992.29
2019-06-07T01:28:55.469Z,992.33
2019-06-07T01:29:55.462Z,992.30
2019-06-07T01:30:55.447Z,992.32
2019-06-07T01:31:55.442Z,992.31
2019-06-07T01:32:55.405Z,992.31
2019-06-07T01:33:55.395Z,992.28
2019-06-07T01:34:55.364Z,992.25
2019-06-07T01:35:55.367Z,992.28
2019-06-07T01:36:55.337Z,992.26
2019-06-07T01:37:55.339Z,992.28
2019-06-07T01:38:55.327Z,992.26
2019-06-07T01:39:55.331Z,992.24
2019-06-07T01:40:55.266Z,992.24
2019-06-07T01:41:55.247Z,992.20
2019-06-07T01:42:55.253Z,992.27
2019-06-07T01:43:55.245Z,992.20
2019-06-07T01:44:55.221Z,992.25
2019-06-07T01:45:55.184Z,992.21
2019-06-07T01:46:55.184Z,992.22
2019-06-07T01:47:55.174Z,992.17
2019-06-07T01:48:55.137Z,992.15
2019-06-07T01:49:55.117Z,992.19
2019-06-07T01:50:55.100Z,992.17
2019-06-07T01:51:55.086Z,992.15
2019-06-07T01:52:55.062Z,992.21
2019-06-07T01:54:41.287Z,992.20
2019-06-07T01:54:58.606Z,992.24
2019-06-07T01:55:55.016Z,992.22
2019-06-07T01:56:55.000Z,992.22
2019-06-07T01:57:54.984Z,992.22
2019-06-07T01:58:54.981Z,992.22
2019-06-07T01:59:54.957Z,992.28
2019-06-07T02:00:54.932Z,992.26
2019-06-07T02:01:54.919Z,992.28
2019-06-07T02:02:54.894Z,992.28
2019-06-07T02:03:54.884Z,992.27
2019-06-07T02:04:54.898Z,992.27
2019-06-07T02:05:54.890Z,992.26
2019-06-07T02:06:54.850Z,992.23
2019-06-07T02:07:54.836Z,992.24
2019-06-07T02:08:54.811Z,992.22
2019-06-07T02:09:54.797Z,992.21
2019-06-07T02:10:54.769Z,992.20
2019-06-07T02:11:54.748Z,992.23
2019-06-07T02:12:54.742Z,992.22
2019-06-07T02:13:54.723Z,992.27
2019-06-07T02:14:54.716Z,992.28
2019-06-07T02:15:54.679Z,992.26
2019-06-07T02:16:54.663Z,992.26
2019-06-07T02:17:54.695Z,992.22
2019-06-07T02:19:01.560Z,992.20
2019-06-07T02:19:54.678Z,992.18
2019-06-07T02:20:54.599Z,992.27
2019-06-07T02:21:54.573Z,992.20
2019-06-07T02:22:54.557Z,992.17
2019-06-07T02:23:54.559Z,992.16
2019-06-07T02:25:34.718Z,992.15
2019-06-07T02:25:54.510Z,992.12
2019-06-07T02:26:54.504Z,992.09
2019-06-07T02:28:11.127Z,992.13
2019-06-07T02:28:54.466Z,992.16
2019-06-07T02:29:54.450Z,992.10
2019-06-07T02:30:59.936Z,992.12
2019-06-07T02:31:54.417Z,992.15
2019-06-07T02:32:54.407Z,992.13
2019-06-07T02:33:54.401Z,992.11
2019-06-07T02:34:54.365Z,992.14
2019-06-07T02:35:54.366Z,992.12
2019-06-07T02:36:54.330Z,992.09
2019-06-07T02:37:54.323Z,992.11
2019-06-07T02:38:54.297Z,992.10
2019-06-07T02:39:54.313Z,992.06
2019-06-07T02:40:54.262Z,992.07
2019-06-07T02:41:54.273Z,992.08
2019-06-07T02:42:54.230Z,992.07
2019-06-07T02:43:54.239Z,992.03
2019-06-07T02:44:54.191Z,992.03
2019-06-07T02:45:54.207Z,992.01
2019-06-07T02:46:54.183Z,992.05
2019-06-07T02:47:54.145Z,991.99
2019-06-07T02:48:54.142Z,991.99
2019-06-07T02:49:54.117Z,991.97
2019-06-07T02:50:54.099Z,991.92
2019-06-07T02:51:54.083Z,991.94
2019-06-07T02:52:54.057Z,991.93
2019-06-07T02:53:54.065Z,991.89
2019-06-07T02:54:54.045Z,991.87
2019-06-07T02:56:58.645Z,991.85
2019-06-07T02:57:54.053Z,991.87
2019-06-07T02:58:53.977Z,991.91
2019-06-07T03:00:16.529Z,991.89
2019-06-07T03:01:07.095Z,991.91
2019-06-07T03:01:53.994Z,991.88
2019-06-07T03:02:53.940Z,991.87
2019-06-07T03:03:53.874Z,991.87
2019-06-07T03:04:53.861Z,991.84
2019-06-07T03:05:53.856Z,991.88
2019-06-07T03:06:53.824Z,991.79
2019-06-07T03:07:53.824Z,991.84
2019-06-07T03:08:53.785Z,991.85
2019-06-07T03:09:53.766Z,991.86
2019-06-07T03:10:53.756Z,991.85
2019-06-07T03:11:53.751Z,991.86
2019-06-07T03:12:53.716Z,991.89
2019-06-07T03:13:53.705Z,991.84
2019-06-07T03:14:53.705Z,991.82
2019-06-07T03:15:53.678Z,991.81
2019-06-07T03:16:53.684Z,991.81
2019-06-07T03:17:53.640Z,991.85
2019-06-07T03:18:53.648Z,991.89
2019-06-07T03:19:53.621Z,991.85
2019-06-07T03:21:04.919Z,991.83
2019-06-07T03:21:53.577Z,991.83
2019-06-07T03:22:53.560Z,991.82
2019-06-07T03:23:53.470Z,991.83
2019-06-07T03:24:53.421Z,991.80
2019-06-07T03:25:53.505Z,991.83
2019-06-07T03:27:53.487Z,991.80
2019-06-07T03:28:53.453Z,991.77
2019-06-07T03:29:53.452Z,991.81
2019-06-07T03:31:02.171Z,991.83
2019-06-07T03:31:53.407Z,991.82
2019-06-07T03:32:53.379Z,991.83
2019-06-07T03:33:53.389Z,991.83
2019-06-07T03:34:53.359Z,991.82
2019-06-07T03:35:53.372Z,991.75
2019-06-07T03:36:53.342Z,991.73
2019-06-07T03:37:53.305Z,991.76
2019-06-07T03:38:53.284Z,991.74
2019-06-07T03:39:53.284Z,991.71
2019-06-07T03:40:53.258Z,991.70
2019-06-07T03:42:05.681Z,991.70
2019-06-07T03:42:53.247Z,991.71
2019-06-07T03:43:53.196Z,991.67
2019-06-07T03:44:53.180Z,991.68
2019-06-07T03:45:53.188Z,991.66
2019-06-07T03:46:53.169Z,991.73
2019-06-07T03:47:53.136Z,991.75
2019-06-07T03:48:53.117Z,991.73
2019-06-07T03:49:53.124Z,991.75
2019-06-07T03:51:04.143Z,991.73
2019-06-07T03:51:53.071Z,991.77
2019-06-07T03:52:53.062Z,991.78
2019-06-07T03:53:53.055Z,991.76
2019-06-07T03:54:53.013Z,991.79
2019-06-07T03:55:53.010Z,991.77
2019-06-07T03:56:52.979Z,991.78
2019-06-07T03:58:52.956Z,991.81
2019-06-07T03:59:52.953Z,991.86
2019-06-07T04:00:52.917Z,991.86
2019-06-07T04:01:52.897Z,991.91
2019-06-07T04:02:52.883Z,991.88
2019-06-07T04:03:52.867Z,991.89
2019-06-07T04:04:52.849Z,991.87
2019-06-07T04:05:52.834Z,991.90
2019-06-07T04:06:52.822Z,991.86
2019-06-07T04:07:52.821Z,991.79
2019-06-07T04:08:52.821Z,991.84
2019-06-07T04:09:52.770Z,991.79
2019-06-07T04:10:59.820Z,991.82
2019-06-07T04:11:52.752Z,991.82
2019-06-07T04:12:52.733Z,991.79
2019-06-07T04:13:52.708Z,991.76
2019-06-07T04:14:52.699Z,991.78
2019-06-07T04:15:52.793Z,991.76
2019-06-07T04:16:52.658Z,991.76
2019-06-07T04:18:01.799Z,991.71
2019-06-07T04:18:52.624Z,991.62
2019-06-07T04:19:52.607Z,991.65
2019-06-07T04:20:52.583Z,991.60
2019-06-07T04:21:52.594Z,991.57
2019-06-07T04:22:52.558Z,991.61
2019-06-07T04:23:52.544Z,991.56
2019-06-07T04:24:52.519Z,991.57
2019-06-07T04:25:52.500Z,991.59
2019-06-07T04:26:52.498Z,991.51
2019-06-07T04:27:52.475Z,991.51
2019-06-07T04:29:31.605Z,991.46
2019-06-07T04:30:06.387Z,991.42
2019-06-07T04:30:52.423Z,991.41
2019-06-07T04:31:52.482Z,991.39
2019-06-07T04:32:52.399Z,991.31
2019-06-07T04:33:52.377Z,991.47
2019-06-07T04:34:52.361Z,991.39
2019-06-07T04:35:52.362Z,991.43
2019-06-07T04:36:59.227Z,991.36
2019-06-07T04:37:52.310Z,991.38
2019-06-07T04:38:52.345Z,991.34
2019-06-07T04:39:52.282Z,991.30
2019-06-07T04:40:52.266Z,991.33
2019-06-07T04:41:52.248Z,991.35
2019-06-07T04:42:52.247Z,991.34
2019-06-07T04:43:52.255Z,991.32
2019-06-07T04:44:52.203Z,991.32
2019-06-07T04:45:52.184Z,991.33
2019-06-07T04:46:52.164Z,991.32
2019-06-07T04:47:52.173Z,991.27
2019-06-07T04:48:52.137Z,991.27
2019-06-07T04:49:52.115Z,991.26
2019-06-07T04:50:52.377Z,991.28
2019-06-07T04:51:52.101Z,991.27
2019-06-07T04:52:52.073Z,991.26
2019-06-07T04:53:52.058Z,991.23
2019-06-07T04:54:52.042Z,991.20
2019-06-07T04:55:52.047Z,991.18
2019-06-07T04:56:52.014Z,991.13
2019-06-07T04:57:51.995Z,991.16
2019-06-07T04:58:51.989Z,991.15
2019-06-07T05:00:12.153Z,991.11
2019-06-07T05:00:56.840Z,991.10
2019-06-07T05:01:51.929Z,991.10
2019-06-07T05:02:51.920Z,991.11
2019-06-07T05:03:51.901Z,991.08
2019-06-07T05:04:51.898Z,991.11
2019-06-07T05:05:51.868Z,991.08
2019-06-07T05:06:51.860Z,991.03
2019-06-07T05:07:51.835Z,991.01
2019-06-07T05:08:51.814Z,991.01
2019-06-07T05:09:51.804Z,991.00
2019-06-07T05:10:51.788Z,990.94
2019-06-07T05:11:51.771Z,990.94
2019-06-07T05:12:51.762Z,990.94
2019-06-07T05:13:51.742Z,990.98
2019-06-07T05:14:51.724Z,990.99
2019-06-07T05:15:51.709Z,990.97
2019-06-07T05:16:51.692Z,990.92
2019-06-07T05:17:51.679Z,990.89
2019-06-07T05:18:51.662Z,990.86
2019-06-07T05:19:51.649Z,990.88
2019-06-07T05:20:51.630Z,990.88
2019-06-07T05:22:03.482Z,990.87
2019-06-07T05:22:51.608Z,990.87
2019-06-07T05:24:10.281Z,990.87
2019-06-07T05:24:51.569Z,990.86
2019-06-07T05:25:51.549Z,990.85
2019-06-07T05:26:51.537Z,990.82
2019-06-07T05:27:51.540Z,990.84
2019-06-07T05:28:51.505Z,990.86
2019-06-07T05:30:08.851Z,990.81
2019-06-07T05:31:03.469Z,990.83
2019-06-07T05:31:51.475Z,990.90
2019-06-07T05:32:51.440Z,990.90
2019-06-07T05:33:51.423Z,990.89
2019-06-07T05:34:51.411Z,990.87
2019-06-07T05:35:51.399Z,990.83
2019-06-07T05:37:10.588Z,990.81
2019-06-07T05:37:51.362Z,990.78
2019-06-07T05:38:51.352Z,990.74
2019-06-07T05:39:51.333Z,990.74
2019-06-07T05:40:51.333Z,990.71
2019-06-07T05:41:51.340Z,990.71
2019-06-07T05:42:51.285Z,990.68
2019-06-07T05:44:11.311Z,990.69
2019-06-07T05:44:51.253Z,990.72
2019-06-07T05:45:51.238Z,990.67
2019-06-07T05:46:51.229Z,990.70
2019-06-07T05:47:51.504Z,990.72
2019-06-07T05:48:51.190Z,990.70
2019-06-07T05:49:51.197Z,990.73
2019-06-07T05:50:56.803Z,990.76
2019-06-07T05:51:51.147Z,990.70
2019-06-07T05:52:51.133Z,990.72
2019-06-07T05:53:51.118Z,990.71
2019-06-07T05:54:51.115Z,990.70
2019-06-07T05:55:51.104Z,990.76
2019-06-07T05:56:51.085Z,990.75
2019-06-07T05:57:51.298Z,990.72
2019-06-07T05:58:51.042Z,990.74
2019-06-07T05:59:51.072Z,990.75
2019-06-07T06:00:51.164Z,990.75
2019-06-07T06:02:00.165Z,990.76
2019-06-07T06:03:04.428Z,990.80
2019-06-07T06:03:50.970Z,990.82
2019-06-07T06:04:50.951Z,990.84
2019-06-07T06:05:55.428Z,990.82
2019-06-07T06:06:50.926Z,990.81
2019-06-07T06:07:51.130Z,990.82
2019-06-07T06:08:50.894Z,990.78
2019-06-07T06:09:50.878Z,990.80
2019-06-07T06:10:50.865Z,990.74
2019-06-07T06:12:01.842Z,990.77
2019-06-07T06:12:51.955Z,990.79
2019-06-07T06:14:07.643Z,990.76
2019-06-07T06:14:50.806Z,990.76
2019-06-07T06:16:00.452Z,990.77
2019-06-07T06:16:50.796Z,990.79
2019-06-07T06:17:53.866Z,990.79
2019-06-07T06:18:50.747Z,990.82
2019-06-07T06:19:53.429Z,990.73
2019-06-07T06:21:17.616Z,990.74
2019-06-07T06:21:50.713Z,990.73
2019-06-07T06:22:51.279Z,990.78
2019-06-07T06:23:52.149Z,990.80
2019-06-07T06:25:29.757Z,990.74
2019-06-07T06:25:56.613Z,990.75
2019-06-07T06:26:55.183Z,990.68
2019-06-07T06:28:10.050Z,990.70
2019-06-07T06:28:50.611Z,990.72
2019-06-07T06:29:52.424Z,990.69
2019-06-07T06:30:50.579Z,990.72
2019-06-07T06:32:39.402Z,990.67
2019-06-07T06:32:57.544Z,990.64
2019-06-07T06:33:50.535Z,990.65
2019-06-07T06:34:53.640Z,990.70
2019-06-07T06:35:51.036Z,990.69
2019-06-07T06:36:50.595Z,990.69
2019-06-07T06:37:53.245Z,990.69
2019-06-07T06:38:51.613Z,990.63
2019-06-07T06:39:50.446Z,990.68
2019-06-07T06:41:11.747Z,990.73
2019-06-07T06:42:00.820Z,990.76
2019-06-07T06:42:50.660Z,990.76
2019-06-07T06:43:52.489Z,990.78
2019-06-07T06:44:53.996Z,990.84
2019-06-07T06:45:50.700Z,990.76
2019-06-07T06:46:57.608Z,990.79
2019-06-07T06:47:50.721Z,990.73
2019-06-07T06:48:54.831Z,990.74
2019-06-07T06:49:54.340Z,990.68
2019-06-07T06:50:52.526Z,990.77
2019-06-07T06:51:53.514Z,990.78
2019-06-07T06:52:54.229Z,990.73
2019-06-07T06:53:52.562Z,990.70
2019-06-07T06:54:59.423Z,990.78
2019-06-07T06:55:51.427Z,990.79
2019-06-07T06:56:52.601Z,990.74
2019-06-07T06:57:51.373Z,990.76
2019-06-07T06:59:32.682Z,990.72
2019-06-07T06:59:52.525Z,990.82
2019-06-07T07:01:04.083Z,990.76
2019-06-07T07:01:52.484Z,990.75
2019-06-07T07:03:39.391Z,990.73
2019-06-07T07:04:05.242Z,990.76
2019-06-07T07:04:53.431Z,990.77
2019-06-07T07:05:54.243Z,990.76
2019-06-07T07:06:50.625Z,990.74
2019-06-07T07:07:52.663Z,990.82
2019-06-07T07:08:51.378Z,990.72
2019-06-07T07:09:55.305Z,990.75
2019-06-07T07:10:53.317Z,990.73
2019-06-07T07:12:04.237Z,990.73
2019-06-07T07:12:52.465Z,990.69
2019-06-07T07:13:56.339Z,990.75
2019-06-07T07:14:52.951Z,990.77
2019-06-07T07:15:55.100Z,990.68
2019-06-07T07:16:54.496Z,990.66
2019-06-07T07:18:03.757Z,990.62
2019-06-07T07:18:52.921Z,990.60
2019-06-07T07:19:52.256Z,990.65
2019-06-07T07:20:51.304Z,990.58
2019-06-07T07:21:52.966Z,990.58
2019-06-07T07:22:53.529Z,990.60
2019-06-07T07:24:14.764Z,990.56
2019-06-07T07:24:52.802Z,990.56
2019-06-07T07:25:55.562Z,990.52
2019-06-07T07:26:52.723Z,990.54
2019-06-07T07:27:53.425Z,990.54
2019-06-07T07:28:51.767Z,990.47
2019-06-07T07:30:00.057Z,990.47
2019-06-07T07:30:54.487Z,990.41
2019-06-07T07:31:52.378Z,990.38
2019-06-07T07:32:51.302Z,990.39
2019-06-07T07:34:52.674Z,990.41
2019-06-07T07:36:10.848Z,990.40
2019-06-07T07:36:52.999Z,990.36
2019-06-07T07:37:57.053Z,990.37
2019-06-07T07:38:56.520Z,990.37
2019-06-07T07:39:53.345Z,990.37
2019-06-07T07:41:07.373Z,990.29
2019-06-07T07:42:13.706Z,990.23
2019-06-07T07:42:51.841Z,990.32
2019-06-07T07:43:59.514Z,990.33
2019-06-07T07:44:53.278Z,990.29
2019-06-07T07:45:57.290Z,990.28
2019-06-07T07:46:53.743Z,990.27
2019-06-07T07:48:08.321Z,990.31
2019-06-07T07:48:51.723Z,990.28
2019-06-07T07:49:54.031Z,990.26
2019-06-07T07:50:53.767Z,990.26
2019-06-07T07:51:52.833Z,990.21
2019-06-07T07:52:55.962Z,990.22
2019-06-07T07:54:01.549Z,990.13
2019-06-07T07:54:52.028Z,990.14
2019-06-07T07:55:53.125Z,990.13
2019-06-07T07:56:51.514Z,990.10
2019-06-07T07:57:53.384Z,990.11
2019-06-07T07:58:53.681Z,990.09
2019-06-07T08:00:12.081Z,990.06
2019-06-07T08:00:53.955Z,990.04
2019-06-07T08:01:52.780Z,990.05
2019-06-07T08:02:52.995Z,990.08
2019-06-07T08:03:50.680Z,990.08
2019-06-07T08:05:51.313Z,990.05
2019-06-07T08:06:51.556Z,990.03
2019-06-07T08:07:51.931Z,989.99
2019-06-07T08:08:49.189Z,990.00
2019-06-07T08:09:51.435Z,990.02
2019-06-07T08:10:54.998Z,989.96
2019-06-07T08:11:50.059Z,989.88
2019-06-07T08:13:12.891Z,989.92
2019-06-07T08:13:50.605Z,989.94
2019-06-07T08:14:51.235Z,989.81
2019-06-07T08:15:53.960Z,989.87
2019-06-07T08:16:49.384Z,989.80
2019-06-07T08:17:51.452Z,989.85
2019-06-07T08:18:52.793Z,989.82
2019-06-07T08:19:49.960Z,989.81
2019-06-07T08:21:11.737Z,989.77
2019-06-07T08:21:49.140Z,989.78
2019-06-07T08:22:49.980Z,989.78
2019-06-07T08:23:51.604Z,989.74
2019-06-07T08:24:50.498Z,989.75
2019-06-07T08:25:49.183Z,989.73
2019-06-07T08:27:13.045Z,989.71
2019-06-07T08:27:49.513Z,989.74
2019-06-07T08:28:52.615Z,989.73
2019-06-07T08:30:10.230Z,989.77
2019-06-07T08:30:55.021Z,989.69
2019-06-07T08:31:50.834Z,989.67
2019-06-07T08:32:51.529Z,989.65
2019-06-07T08:33:50.168Z,989.64
2019-06-07T08:34:51.864Z,989.61
2019-06-07T08:36:19.384Z,989.61
2019-06-07T08:36:49.971Z,989.63
2019-06-07T08:38:21.366Z,989.59
2019-06-07T08:38:54.196Z,989.57
2019-06-07T08:39:50.369Z,989.51
2019-06-07T08:40:54.636Z,989.52
2019-06-07T08:41:59.337Z,989.54
2019-06-07T08:43:11.362Z,989.52
2019-06-07T08:43:49.224Z,989.48
2019-06-07T08:44:49.213Z,989.44
2019-06-07T08:45:53.169Z,989.40
2019-06-07T08:46:55.658Z,989.39
2019-06-07T08:47:56.517Z,989.37
2019-06-07T08:48:50.014Z,989.32
2019-06-07T08:49:50.675Z,989.31
2019-06-07T08:50:48.795Z,989.35
2019-06-07T08:51:48.787Z,989.27
2019-06-07T08:52:48.778Z,989.25
2019-06-07T08:54:02.854Z,989.25
2019-06-07T08:54:48.761Z,989.20
2019-06-07T08:55:48.828Z,989.30
2019-06-07T08:56:48.744Z,989.27
2019-06-07T08:57:48.741Z,989.32
2019-06-07T08:58:48.733Z,989.25
2019-06-07T08:59:48.728Z,989.32
2019-06-07T09:00:48.719Z,989.28
2019-06-07T09:01:48.710Z,989.28
2019-06-07T09:02:48.706Z,989.26
2019-06-07T09:03:48.704Z,989.25
2019-06-07T09:04:48.696Z,989.27
2019-06-07T09:05:48.689Z,989.20
2019-06-07T09:07:18.448Z,989.22
2019-06-07T09:08:07.111Z,989.24
2019-06-07T09:08:48.671Z,989.30
2019-06-07T09:09:48.666Z,989.24
2019-06-07T09:10:48.651Z,989.31
2019-06-07T09:11:48.649Z,989.31
2019-06-07T09:12:48.646Z,989.27
2019-06-07T09:13:48.645Z,989.25
2019-06-07T09:15:06.879Z,989.22
2019-06-07T09:15:48.633Z,989.19
2019-06-07T09:16:48.627Z,989.26
2019-06-07T09:18:48.618Z,989.25
2019-06-07T09:19:48.616Z,989.25
2019-06-07T09:20:48.607Z,989.30
2019-06-07T09:21:48.601Z,989.23
2019-06-07T09:22:48.598Z,989.20
2019-06-07T09:23:48.595Z,989.18
2019-06-07T09:24:48.588Z,989.19
2019-06-07T09:25:57.556Z,989.14
2019-06-07T09:26:48.578Z,989.11
2019-06-07T09:27:48.476Z,989.07
2019-06-07T09:28:48.576Z,989.10
2019-06-07T09:29:48.562Z,988.99
2019-06-07T09:30:48.651Z,988.93
2019-06-07T09:31:53.203Z,988.91
2019-06-07T09:32:48.555Z,988.96
2019-06-07T09:33:48.553Z,988.96
2019-06-07T09:34:48.547Z,988.97
2019-06-07T09:35:48.543Z,988.98
2019-06-07T09:36:48.535Z,988.94
2019-06-07T09:38:07.804Z,988.96
2019-06-07T09:38:48.528Z,989.00
2019-06-07T09:39:48.535Z,989.04
2019-06-07T09:40:48.520Z,988.99
2019-06-07T09:41:50.504Z,988.94
2019-06-07T09:42:48.512Z,988.96
2019-06-07T09:44:04.626Z,988.95
2019-06-07T09:44:48.505Z,988.90
2019-06-07T09:45:48.505Z,988.94
2019-06-07T09:47:09.644Z,988.88
2019-06-07T09:47:48.517Z,988.87
2019-06-07T09:49:10.630Z,988.85
2019-06-07T09:49:48.488Z,988.79
2019-06-07T09:50:48.484Z,988.83
2019-06-07T09:51:48.484Z,988.80
2019-06-07T09:52:58.479Z,988.76
2019-06-07T09:53:48.477Z,988.75
2019-06-07T09:55:15.384Z,988.66
2019-06-07T09:55:48.467Z,988.68
2019-06-07T09:56:48.462Z,988.65
2019-06-07T09:57:48.463Z,988.64
2019-06-07T09:58:51.988Z,988.59
2019-06-07T09:59:48.456Z,988.60
2019-06-07T10:00:48.453Z,988.60
2019-06-07T10:01:49.575Z,988.66
2019-06-07T10:02:48.453Z,988.62
2019-06-07T10:03:48.445Z,988.58
2019-06-07T10:04:48.440Z,988.59
2019-06-07T10:05:48.435Z,988.58
2019-06-07T10:06:48.435Z,988.55
2019-06-07T10:08:02.554Z,988.53
2019-06-07T10:10:48.424Z,988.46
2019-06-07T10:11:48.421Z,988.51
2019-06-07T10:12:48.425Z,988.47
2019-06-07T10:13:48.444Z,988.48
2019-06-07T10:14:48.420Z,988.48
2019-06-07T10:15:48.414Z,988.43
2019-06-07T10:16:48.928Z,988.38
2019-06-07T10:17:48.404Z,988.42
2019-06-07T10:18:48.407Z,988.41
2019-06-07T10:19:48.399Z,988.38
2019-06-07T10:20:48.396Z,988.40
2019-06-07T10:21:48.402Z,988.34
2019-06-07T10:22:48.399Z,988.28
2019-06-07T10:23:48.392Z,988.31
2019-06-07T10:24:48.387Z,988.30
2019-06-07T10:25:48.384Z,988.21
2019-06-07T10:26:48.382Z,988.22
2019-06-07T10:27:48.384Z,988.20
2019-06-07T10:28:48.378Z,988.20
2019-06-07T10:29:48.379Z,988.16
2019-06-07T10:30:48.375Z,988.19
2019-06-07T10:31:48.373Z,988.13
2019-06-07T10:32:51.951Z,988.13
2019-06-07T10:33:48.372Z,988.07
2019-06-07T10:34:48.377Z,988.09
2019-06-07T10:35:48.370Z,988.04
2019-06-07T10:36:48.363Z,988.06
2019-06-07T10:37:48.362Z,988.09
2019-06-07T10:38:48.363Z,988.02
2019-06-07T10:39:49.391Z,988.00
2019-06-07T10:40:48.360Z,987.97
2019-06-07T10:41:48.364Z,987.93
2019-06-07T10:42:48.344Z,987.92
2019-06-07T10:43:48.345Z,987.95
2019-06-07T10:44:48.342Z,987.98
2019-06-07T10:45:48.344Z,987.97
2019-06-07T10:46:48.349Z,987.96
2019-06-07T10:47:48.346Z,987.93
2019-06-07T10:48:48.339Z,987.88
2019-06-07T10:49:48.339Z,987.86
2019-06-07T10:50:48.335Z,987.94
2019-06-07T10:51:48.332Z,987.95
2019-06-07T10:52:48.329Z,987.96
2019-06-07T10:53:48.327Z,987.90
2019-06-07T10:54:48.326Z,987.94
2019-06-07T10:55:48.324Z,987.92
2019-06-07T10:56:48.320Z,987.89
2019-06-07T10:57:48.315Z,987.89
2019-06-07T10:58:48.313Z,987.85
2019-06-07T10:59:48.313Z,987.83
2019-06-07T11:00:48.309Z,987.79
2019-06-07T11:01:48.313Z,987.71
2019-06-07T11:02:48.310Z,987.72
2019-06-07T11:03:48.301Z,987.66
2019-06-07T11:04:48.296Z,987.69
2019-06-07T11:05:48.298Z,987.70
2019-06-07T11:06:48.296Z,987.77
2019-06-07T11:07:48.296Z,987.73
2019-06-07T11:08:48.290Z,987.66
2019-06-07T11:10:02.868Z,987.74
2019-06-07T11:10:48.284Z,987.68
2019-06-07T11:11:48.282Z,987.70
2019-06-07T11:12:48.291Z,987.64
2019-06-07T11:13:48.278Z,987.60
2019-06-07T11:14:48.273Z,987.56
2019-06-07T11:15:48.288Z,987.54
2019-06-07T11:16:48.272Z,987.51
2019-06-07T11:17:48.271Z,987.50
2019-06-07T11:18:48.270Z,987.55
2019-06-07T11:19:48.273Z,987.50
2019-06-07T11:20:48.269Z,987.50
2019-06-07T11:21:48.269Z,987.44
2019-06-07T11:22:48.269Z,987.50
2019-06-07T11:23:48.262Z,987.46
2019-06-07T11:24:48.256Z,987.41
2019-06-07T11:25:48.392Z,987.43
2019-06-07T11:26:48.261Z,987.45
2019-06-07T11:27:48.277Z,987.43
2019-06-07T11:28:48.254Z,987.45
2019-06-07T11:29:48.264Z,987.42
2019-06-07T11:30:48.249Z,987.42
2019-06-07T11:31:48.252Z,987.43
2019-06-07T11:32:48.252Z,987.43
2019-06-07T11:33:48.246Z,987.37
2019-06-07T11:34:48.242Z,987.36
2019-06-07T11:35:48.254Z,987.36
2019-06-07T11:36:51.064Z,987.40
2019-06-07T11:37:48.247Z,987.39
2019-06-07T11:38:48.250Z,987.35
2019-06-07T11:39:48.295Z,987.30
2019-06-07T11:40:48.242Z,987.26
2019-06-07T11:41:48.242Z,987.24
2019-06-07T11:42:48.241Z,987.20
2019-06-07T11:43:48.596Z,987.24
2019-06-07T11:44:56.874Z,987.25
2019-06-07T11:45:48.239Z,987.16
2019-06-07T11:46:48.239Z,987.15
2019-06-07T11:47:48.240Z,987.18
2019-06-07T11:48:48.235Z,987.17
2019-06-07T11:49:48.239Z,987.16
2019-06-07T11:50:48.235Z,987.19
2019-06-07T11:51:48.237Z,987.10
2019-06-07T11:52:48.237Z,987.16
2019-06-07T11:53:48.238Z,987.08
2019-06-07T11:54:48.302Z,987.07
2019-06-07T11:55:48.253Z,987.08
2019-06-07T11:56:48.344Z,987.01
2019-06-07T11:57:48.338Z,987.07
2019-06-07T11:58:48.340Z,987.01
2019-06-07T11:59:48.342Z,987.03
2019-06-07T12:00:48.340Z,987.00
2019-06-07T12:01:48.238Z,986.92
2019-06-07T12:02:48.340Z,986.91
2019-06-07T12:03:48.345Z,986.89
2019-06-07T12:04:48.341Z,986.88
2019-06-07T12:05:48.345Z,986.85
2019-06-07T12:06:48.340Z,986.84
2019-06-07T12:07:48.349Z,986.80
2019-06-07T12:08:48.343Z,986.85
2019-06-07T12:09:56.321Z,986.81
2019-06-07T12:10:48.347Z,986.86
2019-06-07T12:11:48.346Z,986.84
2019-06-07T12:12:48.347Z,986.81
2019-06-07T12:13:48.347Z,986.79
2019-06-07T12:14:48.351Z,986.81
2019-06-07T12:15:49.303Z,986.80
2019-06-07T12:16:48.425Z,986.75
2019-06-07T12:17:48.350Z,986.75
2019-06-07T12:18:48.351Z,986.73
2019-06-07T12:19:48.356Z,986.73
2019-06-07T12:20:48.357Z,986.73
2019-06-07T12:21:48.358Z,986.72
2019-06-07T12:22:48.357Z,986.74
2019-06-07T12:23:48.358Z,986.71
2019-06-07T12:24:48.357Z,986.65
2019-06-07T12:25:48.362Z,986.57
2019-06-07T12:26:48.362Z,986.55
2019-06-07T12:27:48.361Z,986.62
2019-06-07T12:28:48.362Z,986.58
2019-06-07T12:29:48.356Z,986.54
2019-06-07T12:30:48.363Z,986.55
2019-06-07T12:31:48.363Z,986.55
2019-06-07T12:32:48.364Z,986.55
2019-06-07T12:33:48.366Z,986.47
2019-06-07T12:34:48.371Z,986.52
2019-06-07T12:35:48.367Z,986.48
2019-06-07T12:36:48.267Z,986.48
2019-06-07T12:37:48.266Z,986.48
2019-06-07T12:38:48.371Z,986.45